sensor_id;sensor_type;location;lat;lon;timestamp;P1;durP1;ratioP1;P2;durP2;ratioP2
35434;SDS011;21556;55.782;37.528;2023-04-03T15:19:52;14.88;;;8.18;;
35434;SDS011;21556;55.782;37.528;2023-04-03T15:22:19;13.68;;;8.15;;
35434;SDS011;21556;55.782;37.528;2023-04-03T15:24:49;15.82;;;8.13;;
35434;SDS011;21556;55.782;37.528;2023-04-03T15:27:21;12.77;;;7.63;;
35434;SDS011;21556;55.782;37.528;2023-04-03T15:29:47;11.75;;;7.13;;
35434;SDS011;21556;55.782;37.528;2023-04-03T15:32:16;14.77;;;8.60;;
35434;SDS011;21556;55.782;37.528;2023-04-03T15:35:53;15.85;;;8.50;;
35434;SDS011;21556;55.782;37.528;2023-04-03T15:38:22;14.90;;;8.65;;
35434;SDS011;21556;55.782;37.528;2023-04-03T15:40:51;12.18;;;7.95;;
35434;SDS011;21556;55.782;37.528;2023-04-03T15:43:17;13.85;;;8.63;;
35434;SDS011;21556;55.782;37.528;2023-04-03T15:45:46;13.55;;;8.80;;
35434;SDS011;21556;55.782;37.528;2023-04-03T15:48:19;13.95;;;10.35;;
35434;SDS011;21556;55.782;37.528;2023-04-03T15:50:48;17.17;;;9.93;;
35434;SDS011;21556;55.782;37.528;2023-04-03T15:53:20;21.17;;;9.90;;
35434;SDS011;21556;55.782;37.528;2023-04-03T15:55:49;15.20;;;10.23;;
35434;SDS011;21556;55.782;37.528;2023-04-03T16:01:10;17.10;;;10.35;;
35434;SDS011;21556;55.782;37.528;2023-04-03T16:03:40;14.35;;;9.65;;
35434;SDS011;21556;55.782;37.528;2023-04-03T16:06:20;13.50;;;9.60;;
35434;SDS011;21556;55.782;37.528;2023-04-03T16:08:56;11.77;;;8.73;;
35434;SDS011;21556;55.782;37.528;2023-04-03T16:11:32;18.45;;;9.75;;
35434;SDS011;21556;55.782;37.528;2023-04-03T16:14:03;12.98;;;8.80;;
35434;SDS011;21556;55.782;37.528;2023-04-03T16:19:51;13.88;;;9.30;;
35434;SDS011;21556;55.782;37.528;2023-04-03T16:22:27;16.88;;;10.25;;
35434;SDS011;21556;55.782;37.528;2023-04-03T16:25:08;18.83;;;9.93;;
35434;SDS011;21556;55.782;37.528;2023-04-03T16:27:41;18.63;;;10.00;;
35434;SDS011;21556;55.782;37.528;2023-04-03T16:30:13;17.73;;;10.68;;
35434;SDS011;21556;55.782;37.528;2023-04-03T16:32:42;15.30;;;9.95;;
35434;SDS011;21556;55.782;37.528;2023-04-03T16:35:14;18.45;;;10.13;;
35434;SDS011;21556;55.782;37.528;2023-04-03T16:38:05;20.58;;;10.82;;
35434;SDS011;21556;55.782;37.528;2023-04-03T16:40:38;24.08;;;11.63;;
35434;SDS011;21556;55.782;37.528;2023-04-03T16:43:16;20.70;;;11.05;;
35434;SDS011;21556;55.782;37.528;2023-04-03T16:45:42;17.80;;;10.57;;
35434;SDS011;21556;55.782;37.528;2023-04-03T16:48:12;19.70;;;9.77;;
35434;SDS011;21556;55.782;37.528;2023-04-03T16:50:45;16.83;;;9.73;;
35434;SDS011;21556;55.782;37.528;2023-04-03T16:53:14;17.42;;;8.80;;
35434;SDS011;21556;55.782;37.528;2023-04-03T16:55:56;20.80;;;10.05;;
35434;SDS011;21556;55.782;37.528;2023-04-03T16:58:29;13.43;;;8.30;;
35434;SDS011;21556;55.782;37.528;2023-04-03T17:00:57;14.07;;;8.52;;
35434;SDS011;21556;55.782;37.528;2023-04-03T17:03:26;13.13;;;8.68;;
35434;SDS011;21556;55.782;37.528;2023-04-03T17:05:56;12.88;;;7.93;;
35434;SDS011;21556;55.782;37.528;2023-04-03T17:08:26;16.80;;;8.63;;
35434;SDS011;21556;55.782;37.528;2023-04-03T17:11:02;15.68;;;8.68;;
35434;SDS011;21556;55.782;37.528;2023-04-03T17:13:30;13.25;;;9.07;;
35434;SDS011;21556;55.782;37.528;2023-04-03T17:16:13;16.90;;;8.95;;
35434;SDS011;21556;55.782;37.528;2023-04-03T17:18:41;16.73;;;9.38;;
35434;SDS011;21556;55.782;37.528;2023-04-03T17:21:11;15.25;;;8.32;;
35434;SDS011;21556;55.782;37.528;2023-04-03T17:23:50;11.52;;;7.68;;
35434;SDS011;21556;55.782;37.528;2023-04-03T17:26:23;11.52;;;7.43;;
35434;SDS011;21556;55.782;37.528;2023-04-03T17:29:01;12.98;;;7.63;;
35434;SDS011;21556;55.782;37.528;2023-04-03T17:31:28;11.48;;;8.27;;
35434;SDS011;21556;55.782;37.528;2023-04-03T17:34:04;13.85;;;8.30;;
35434;SDS011;21556;55.782;37.528;2023-04-03T17:36:36;10.25;;;7.85;;
35434;SDS011;21556;55.782;37.528;2023-04-03T17:39:15;11.00;;;7.85;;
35434;SDS011;21556;55.782;37.528;2023-04-03T17:41:41;13.93;;;7.80;;
35434;SDS011;21556;55.782;37.528;2023-04-03T17:44:11;10.98;;;8.55;;
35434;SDS011;21556;55.782;37.528;2023-04-03T17:46:51;12.30;;;8.55;;
35434;SDS011;21556;55.782;37.528;2023-04-03T17:49:24;16.13;;;10.57;;
35434;SDS011;21556;55.782;37.528;2023-04-03T17:54:22;15.77;;;10.88;;
35434;SDS011;21556;55.782;37.528;2023-04-03T17:56:56;19.35;;;13.90;;
35434;SDS011;21556;55.782;37.528;2023-04-03T17:59:34;18.92;;;13.82;;
35434;SDS011;21556;55.782;37.528;2023-04-03T18:02:26;21.83;;;15.63;;
35434;SDS011;21556;55.782;37.528;2023-04-03T18:04:59;19.08;;;14.48;;
35434;SDS011;21556;55.782;37.528;2023-04-03T18:07:26;20.80;;;14.55;;
35434;SDS011;21556;55.782;37.528;2023-04-03T18:09:59;19.48;;;14.80;;
35434;SDS011;21556;55.782;37.528;2023-04-03T18:12:43;20.00;;;15.40;;
35434;SDS011;21556;55.782;37.528;2023-04-03T18:15:23;19.98;;;15.57;;
35434;SDS011;21556;55.782;37.528;2023-04-03T18:17:53;23.70;;;15.80;;
35434;SDS011;21556;55.782;37.528;2023-04-03T18:20:39;20.33;;;15.38;;
35434;SDS011;21556;55.782;37.528;2023-04-03T18:23:12;20.48;;;15.23;;
35434;SDS011;21556;55.782;37.528;2023-04-03T18:25:41;17.92;;;15.32;;
35434;SDS011;21556;55.782;37.528;2023-04-03T18:28:18;19.55;;;15.00;;
35434;SDS011;21556;55.782;37.528;2023-04-03T18:31:00;21.45;;;14.98;;
35434;SDS011;21556;55.782;37.528;2023-04-03T18:34:01;20.55;;;15.13;;
35434;SDS011;21556;55.782;37.528;2023-04-03T18:37:16;22.40;;;14.48;;
35434;SDS011;21556;55.782;37.528;2023-04-03T18:39:49;16.80;;;14.30;;
35434;SDS011;21556;55.782;37.528;2023-04-03T18:42:29;19.45;;;14.48;;
35434;SDS011;21556;55.782;37.528;2023-04-03T18:45:20;16.20;;;13.57;;
35434;SDS011;21556;55.782;37.528;2023-04-03T18:47:51;18.05;;;13.70;;
35434;SDS011;21556;55.782;37.528;2023-04-03T18:50:42;17.10;;;14.15;;
35434;SDS011;21556;55.782;37.528;2023-04-03T18:53:10;17.98;;;13.07;;
35434;SDS011;21556;55.782;37.528;2023-04-03T18:55:53;17.73;;;14.20;;
35434;SDS011;21556;55.782;37.528;2023-04-03T18:58:33;18.90;;;13.50;;
35434;SDS011;21556;55.782;37.528;2023-04-03T19:01:04;17.42;;;12.98;;
35434;SDS011;21556;55.782;37.528;2023-04-03T19:04:12;14.73;;;13.07;;
35434;SDS011;21556;55.782;37.528;2023-04-03T19:06:41;19.00;;;13.93;;
35434;SDS011;21556;55.782;37.528;2023-04-03T19:09:11;14.35;;;12.85;;
35434;SDS011;21556;55.782;37.528;2023-04-03T19:11:41;18.40;;;13.55;;
35434;SDS011;21556;55.782;37.528;2023-04-03T19:14:10;15.85;;;14.05;;
35434;SDS011;21556;55.782;37.528;2023-04-03T19:16:54;14.25;;;12.73;;
35434;SDS011;21556;55.782;37.528;2023-04-03T19:20:12;16.45;;;13.20;;
35434;SDS011;21556;55.782;37.528;2023-04-03T19:23:33;14.40;;;12.18;;
35434;SDS011;21556;55.782;37.528;2023-04-03T19:26:14;15.65;;;12.45;;
35434;SDS011;21556;55.782;37.528;2023-04-03T19:29:26;14.82;;;12.30;;
35434;SDS011;21556;55.782;37.528;2023-04-03T19:32:32;13.45;;;11.70;;
35434;SDS011;21556;55.782;37.528;2023-04-03T19:35:07;13.93;;;12.40;;
35434;SDS011;21556;55.782;37.528;2023-04-03T19:37:36;17.02;;;13.18;;
35434;SDS011;21556;55.782;37.528;2023-04-03T19:40:37;16.92;;;12.90;;
35434;SDS011;21556;55.782;37.528;2023-04-03T19:43:10;15.35;;;12.43;;
35434;SDS011;21556;55.782;37.528;2023-04-03T19:49:11;15.35;;;12.40;;
35434;SDS011;21556;55.782;37.528;2023-04-03T19:51:38;15.43;;;12.93;;
35434;SDS011;21556;55.782;37.528;2023-04-03T19:54:10;16.85;;;13.40;;
35434;SDS011;21556;55.782;37.528;2023-04-03T19:56:36;14.63;;;12.93;;
35434;SDS011;21556;55.782;37.528;2023-04-03T19:59:09;14.02;;;12.63;;
35434;SDS011;21556;55.782;37.528;2023-04-03T20:01:35;16.10;;;12.82;;
35434;SDS011;21556;55.782;37.528;2023-04-03T20:04:30;15.55;;;13.95;;
35434;SDS011;21556;55.782;37.528;2023-04-03T20:07:20;15.32;;;12.82;;
35434;SDS011;21556;55.782;37.528;2023-04-03T20:10:19;16.38;;;13.38;;
35434;SDS011;21556;55.782;37.528;2023-04-03T20:13:13;16.55;;;13.23;;
35434;SDS011;21556;55.782;37.528;2023-04-03T20:15:52;17.57;;;13.77;;
35434;SDS011;21556;55.782;37.528;2023-04-03T20:18:27;17.77;;;13.05;;
35434;SDS011;21556;55.782;37.528;2023-04-03T20:21:00;19.55;;;13.68;;
35434;SDS011;21556;55.782;37.528;2023-04-03T20:23:28;15.35;;;13.55;;
35434;SDS011;21556;55.782;37.528;2023-04-03T20:25:59;14.25;;;12.85;;
35434;SDS011;21556;55.782;37.528;2023-04-03T20:28:34;14.32;;;12.85;;
35434;SDS011;21556;55.782;37.528;2023-04-03T20:31:12;15.70;;;12.32;;
35434;SDS011;21556;55.782;37.528;2023-04-03T20:33:42;16.40;;;13.27;;
35434;SDS011;21556;55.782;37.528;2023-04-03T20:36:15;15.38;;;13.68;;
35434;SDS011;21556;55.782;37.528;2023-04-03T20:38:48;16.10;;;12.75;;
35434;SDS011;21556;55.782;37.528;2023-04-03T20:41:19;15.10;;;13.50;;
35434;SDS011;21556;55.782;37.528;2023-04-03T20:43:53;14.95;;;13.40;;
35434;SDS011;21556;55.782;37.528;2023-04-03T20:46:19;15.23;;;13.02;;
35434;SDS011;21556;55.782;37.528;2023-04-03T20:48:54;17.30;;;14.75;;
35434;SDS011;21556;55.782;37.528;2023-04-03T20:51:22;15.68;;;13.63;;
35434;SDS011;21556;55.782;37.528;2023-04-03T20:54:00;17.67;;;14.32;;
35434;SDS011;21556;55.782;37.528;2023-04-03T20:59:01;15.27;;;13.02;;
35434;SDS011;21556;55.782;37.528;2023-04-03T21:01:32;17.05;;;14.15;;
35434;SDS011;21556;55.782;37.528;2023-04-03T21:04:01;18.13;;;13.38;;
35434;SDS011;21556;55.782;37.528;2023-04-03T21:20:38;16.67;;;13.98;;
35434;SDS011;21556;55.782;37.528;2023-04-03T21:23:04;18.58;;;13.60;;
35434;SDS011;21556;55.782;37.528;2023-04-03T21:25:34;14.13;;;12.60;;
35434;SDS011;21556;55.782;37.528;2023-04-03T21:28:00;14.25;;;12.75;;
35434;SDS011;21556;55.782;37.528;2023-04-03T21:30:27;15.75;;;12.85;;
35434;SDS011;21556;55.782;37.528;2023-04-03T21:32:55;16.67;;;14.48;;
35434;SDS011;21556;55.782;37.528;2023-04-03T21:35:21;16.55;;;13.85;;
35434;SDS011;21556;55.782;37.528;2023-04-03T21:37:47;20.92;;;13.90;;
35434;SDS011;21556;55.782;37.528;2023-04-03T21:40:13;16.58;;;13.02;;
35434;SDS011;21556;55.782;37.528;2023-04-03T21:42:39;16.45;;;13.75;;
35434;SDS011;21556;55.782;37.528;2023-04-03T21:45:05;15.32;;;12.70;;
35434;SDS011;21556;55.782;37.528;2023-04-03T21:47:31;16.38;;;13.80;;
35434;SDS011;21556;55.782;37.528;2023-04-03T21:50:00;17.05;;;13.50;;
35434;SDS011;21556;55.782;37.528;2023-04-03T21:52:27;15.38;;;13.25;;
35434;SDS011;21556;55.782;37.528;2023-04-03T21:54:53;15.63;;;13.43;;
35434;SDS011;21556;55.782;37.528;2023-04-03T21:57:19;15.23;;;12.27;;
35434;SDS011;21556;55.782;37.528;2023-04-03T21:59:47;13.35;;;11.95;;
35434;SDS011;21556;55.782;37.528;2023-04-03T22:02:13;19.60;;;13.57;;
35434;SDS011;21556;55.782;37.528;2023-04-03T22:04:39;14.07;;;12.43;;
35434;SDS011;21556;55.782;37.528;2023-04-03T22:07:05;15.38;;;13.32;;
35434;SDS011;21556;55.782;37.528;2023-04-03T22:09:31;16.42;;;13.77;;
35434;SDS011;21556;55.782;37.528;2023-04-03T22:11:57;14.68;;;13.10;;
35434;SDS011;21556;55.782;37.528;2023-04-03T22:14:23;15.00;;;13.27;;
35434;SDS011;21556;55.782;37.528;2023-04-03T22:16:49;16.13;;;13.90;;
35434;SDS011;21556;55.782;37.528;2023-04-03T22:19:16;14.80;;;13.30;;
35434;SDS011;21556;55.782;37.528;2023-04-03T22:21:42;16.02;;;13.73;;
35434;SDS011;21556;55.782;37.528;2023-04-03T22:24:08;15.50;;;13.85;;
35434;SDS011;21556;55.782;37.528;2023-04-03T22:26:35;15.77;;;13.85;;
35434;SDS011;21556;55.782;37.528;2023-04-03T22:29:03;16.33;;;14.38;;
35434;SDS011;21556;55.782;37.528;2023-04-03T22:31:30;15.65;;;13.73;;
35434;SDS011;21556;55.782;37.528;2023-04-03T22:33:56;16.13;;;14.48;;
35434;SDS011;21556;55.782;37.528;2023-04-03T22:36:22;20.83;;;14.95;;
35434;SDS011;21556;55.782;37.528;2023-04-03T22:38:49;17.75;;;15.35;;
35434;SDS011;21556;55.782;37.528;2023-04-03T22:41:15;15.52;;;13.88;;
35434;SDS011;21556;55.782;37.528;2023-04-03T22:43:46;15.48;;;13.23;;
35434;SDS011;21556;55.782;37.528;2023-04-03T22:46:14;20.70;;;15.20;;
35434;SDS011;21556;55.782;37.528;2023-04-03T22:48:43;16.95;;;14.50;;
35434;SDS011;21556;55.782;37.528;2023-04-03T22:51:13;18.02;;;15.65;;
35434;SDS011;21556;55.782;37.528;2023-04-03T22:53:42;18.48;;;15.13;;
35434;SDS011;21556;55.782;37.528;2023-04-03T22:56:08;17.80;;;15.15;;
35434;SDS011;21556;55.782;37.528;2023-04-03T23:01:52;18.13;;;15.52;;
35434;SDS011;21556;55.782;37.528;2023-04-03T23:04:27;17.05;;;14.60;;
35434;SDS011;21556;55.782;37.528;2023-04-03T23:06:55;18.35;;;15.35;;
35434;SDS011;21556;55.782;37.528;2023-04-03T23:09:33;17.38;;;14.27;;
35434;SDS011;21556;55.782;37.528;2023-04-03T23:12:11;18.73;;;15.25;;
35434;SDS011;21556;55.782;37.528;2023-04-03T23:14:40;18.10;;;16.20;;
35434;SDS011;21556;55.782;37.528;2023-04-03T23:17:18;16.58;;;14.68;;
35434;SDS011;21556;55.782;37.528;2023-04-03T23:19:45;16.13;;;13.80;;
35434;SDS011;21556;55.782;37.528;2023-04-03T23:22:11;18.67;;;14.90;;
35434;SDS011;21556;55.782;37.528;2023-04-03T23:24:39;16.77;;;14.95;;
35434;SDS011;21556;55.782;37.528;2023-04-03T23:27:08;15.65;;;13.68;;
35434;SDS011;21556;55.782;37.528;2023-04-03T23:32:03;19.13;;;14.30;;
35434;SDS011;21556;55.782;37.528;2023-04-03T23:34:32;17.83;;;15.15;;
35434;SDS011;21556;55.782;37.528;2023-04-03T23:36:58;19.58;;;17.15;;
35434;SDS011;21556;55.782;37.528;2023-04-03T23:39:27;18.35;;;16.00;;
35434;SDS011;21556;55.782;37.528;2023-04-03T23:41:59;20.27;;;15.85;;
35434;SDS011;21556;55.782;37.528;2023-04-03T23:44:29;19.30;;;17.17;;
35434;SDS011;21556;55.782;37.528;2023-04-03T23:46:56;17.90;;;16.00;;
35434;SDS011;21556;55.782;37.528;2023-04-03T23:49:26;21.90;;;16.52;;
35434;SDS011;21556;55.782;37.528;2023-04-03T23:51:52;18.45;;;16.45;;
35434;SDS011;21556;55.782;37.528;2023-04-03T23:54:21;20.08;;;17.10;;
35434;SDS011;21556;55.782;37.528;2023-04-03T23:56:47;19.25;;;16.02;;
35434;SDS011;21556;55.782;37.528;2023-04-03T23:59:13;19.75;;;16.33;;
